Resums METAR propers

 

LEGE - Gerona/Costa Bra, Spain
Distància des de l'estació: S 12km
Actualització: 18/06/2021 22:30
Seré
Seré
 Vent del S
Vent: S 7 km/h
Temperatura: 72°F , 22°C
Rosada: 66°F , 19°C
Humitat: 83%
Baròmetre: 1016 hPa
Resum: Seré
Visibilitat: major de 10 km
2021/06/18 20:30 LEGE 182030Z 18004KT 150V220 CAVOK 22/19 Q1016
Registre actualizat.